SBBRYZYX KWBCYMYX SOZZMAMX SYZZMAMX TBPBYMYX TNCCYMYX TNCAYMYX TFFFYMYX TFFRYMYX TTPPYMYX EGZZMNAM 

132200 SMJPYMYX 

 FTSM20 SMJP 132200 

TAF SMJP 132200Z 1400/1424 07004KT CAVOK BECMG 1408/1409 0800 FG BKN001 FM141200 12010KT 9999 SCT015 TEMPO 1419/1422 VRB12G24KT 3000 TSRA SCT018CB= 

 

TAF SMZO 132200Z 1400/1424 08005KT 9999 FEW012 SCT030 TX33/1418Z TN25/1410Z FM140200 09003KT CAVOK BECMG 1410/1412 12010KT 9999 SCT020 TEMPO 1419/1422 VRB12G24KT 3000 TSRA SCT018CB=   

 

NR. AUGUST 2015